Time;durP1;ratioP1;P1;durP2;ratioP2;P2;SDS_P1;SDS_P2;PMS_P1;PMS_P2;Temp;Humidity;BMP_temperature;BMP_pressure;BME280_temperature;BME280_humidity;BME280_pressure;Samples;Min_cycle;Max_cycle;Signal;HPM_P1;HPM_P2
2022/10/10 00:00:39;;;;;;;3.65;1.92;;;;;;;6.11;71.96;97892.69;6297144;28;20083;-69
2022/10/10 00:03:42;;;;;;;4.65;2.22;;;;;;;6.19;71.75;97894.16;6297958;28;20194;-69
2022/10/10 00:06:43;;;;;;;6.13;1.77;;;;;;;6.28;71.47;97885.19;6298006;28;20036;-68
2022/10/10 00:09:46;;;;;;;6.20;1.95;;;;;;;6.52;70.66;97880.94;6297698;28;20044;-69
2022/10/10 00:12:47;;;;;;;2.17;1.38;;;;;;;6.68;70.63;97883.88;6297510;28;20055;-69
2022/10/10 00:15:53;;;;;;;4.50;2.00;;;;;;;6.88;69.49;97888.44;6297023;28;20048;-68
2022/10/10 00:18:58;;;;;;;1.88;1.50;;;;;;;6.84;69.72;97876.41;6297334;28;20053;-69
2022/10/10 00:22:02;;;;;;;5.32;1.90;;;;;;;6.93;69.21;97882.16;6297414;28;20040;-69
2022/10/10 00:25:05;;;;;;;3.72;1.75;;;;;;;6.92;69.29;97896.16;6297225;28;20079;-69
2022/10/10 00:28:09;;;;;;;1.75;1.20;;;;;;;7.02;69.06;97899.34;6297709;28;20486;-69
2022/10/10 00:31:13;;;;;;;;;;;;;;;7.27;68.50;97901.06;6297852;28;20119;-69
2022/10/10 00:34:16;;;;;;;2.47;1.52;;;;;;;7.45;67.22;97905.69;6297490;28;20313;-69
2022/10/10 00:37:20;;;;;;;2.17;1.60;;;;;;;7.35;67.44;97909.53;6297427;28;20040;-70
2022/10/10 00:40:22;;;;;;;3.08;1.45;;;;;;;7.05;67.96;97907.06;6296640;28;20043;-70
2022/10/10 00:43:27;;;;;;;2.60;1.80;;;;;;;6.81;67.64;97907.88;6296589;28;20087;-69
2022/10/10 00:46:31;;;;;;;2.60;2.13;;;;;;;6.35;68.47;97909.38;6297114;28;20417;-68
2022/10/10 00:49:38;;;;;;;2.55;1.98;;;;;;;6.18;68.66;97910.75;6296943;28;20048;-69
2022/10/10 00:52:41;;;;;;;3.00;1.60;;;;;;;6.04;68.38;97910.31;6297173;28;20052;-69
2022/10/10 00:55:43;;;;;;;4.03;2.10;;;;;;;5.80;69.04;97910.13;6295911;28;20090;-69
2022/10/10 00:58:50;;;;;;;3.63;2.40;;;;;;;5.74;69.01;97925.94;6296891;28;20040;-69
2022/10/10 01:01:56;;;;;;;5.05;2.33;;;;;;;5.36;69.91;97927.03;6296330;28;20033;-68
2022/10/10 01:05:00;;;;;;;4.07;2.47;;;;;;;5.04;70.76;97920.03;6295946;28;20055;-69
2022/10/10 01:08:04;;;;;;;2.78;2.05;;;;;;;4.78;71.30;97913.72;6295709;28;20492;-69
2022/10/10 01:11:36;;;;;;;6.30;2.65;;;;;;;4.55;71.75;97909.09;6296312;28;20036;-69
2022/10/10 01:14:43;;;;;;;2.75;2.30;;;;;;;4.38;72.25;97913.84;6295723;28;20055;-69
2022/10/10 01:17:58;;;;;;;4.30;2.72;;;;;;;4.25;72.59;97923.72;6295841;28;20090;-68
2022/10/10 01:21:02;;;;;;;5.25;4.20;;;;;;;4.26;72.90;97915.00;6296334;28;20494;-69
2022/10/10 01:24:34;;;;;;;3.60;3.10;;;;;;;4.33;72.68;97910.50;6295529;28;20063;-69
2022/10/10 01:27:45;;;;;;;4.22;3.28;;;;;;;4.46;72.49;97912.78;6295233;28;20040;-70
2022/10/10 01:30:51;;;;;;;3.35;2.38;;;;;;;4.29;72.77;97914.94;6296098;28;20036;-70
2022/10/10 01:34:14;;;;;;;3.30;1.95;;;;;;;4.36;72.71;97911.31;6295437;28;20517;-70
2022/10/10 01:37:27;;;;;;;2.88;2.05;;;;;;;4.55;72.52;97900.41;6296116;28;20044;-68
2022/10/10 01:40:43;;;;;;;3.90;2.60;;;;;;;4.61;72.31;97913.28;6296129;28;20549;-69
2022/10/10 01:43:55;;;;;;;2.20;2.00;;;;;;;4.40;72.68;97907.72;6295839;28;20044;-70
2022/10/10 01:46:59;;;;;;;2.45;2.25;;;;;;;4.36;73.24;97910.41;6295666;28;20125;-69
2022/10/10 01:50:10;;;;;;;2.95;2.58;;;;;;;4.31;73.36;97918.38;6295637;28;20044;-69
2022/10/10 01:53:44;;;;;;;3.47;2.20;;;;;;;4.28;73.61;97908.88;6295825;28;20040;-69
2022/10/10 01:56:58;;;;;;;3.40;2.50;;;;;;;4.37;73.53;97918.22;6287261;28;20052;-69
2022/10/10 01:59:59;;;;;;;3.00;2.30;;;;;;;4.39;73.77;97916.44;6294887;28;20131;-69
2022/10/10 02:03:26;;;;;;;4.30;2.50;;;;;;;4.35;73.89;97920.00;6295230;28;20045;-69
2022/10/10 02:06:47;;;;;;;5.53;2.45;;;;;;;4.56;74.07;97922.97;6295651;28;20506;-69
2022/10/10 02:09:53;;;;;;;4.50;2.47;;;;;;;4.69;74.02;97924.41;6295495;28;20105;-69
2022/10/10 02:13:00;;;;;;;4.72;2.70;;;;;;;4.84;74.05;97928.38;6295359;28;20502;-69
2022/10/10 02:16:08;;;;;;;3.95;1.88;;;;;;;5.03;74.02;97924.41;6295451;28;20044;-69
2022/10/10 02:19:15;;;;;;;3.17;1.95;;;;;;;5.17;73.75;97926.66;6294640;28;20189;-69
2022/10/10 02:22:21;;;;;;;4.75;2.08;;;;;;;5.51;73.48;97931.81;6296518;28;20061;-69
2022/10/10 02:25:34;;;;;;;1.95;1.80;;;;;;;5.63;72.88;97931.50;6295218;28;20090;-69
2022/10/10 02:28:46;;;;;;;2.95;1.80;;;;;;;5.65;72.51;97928.81;6293964;28;20048;-69
2022/10/10 02:32:06;;;;;;;3.25;1.58;;;;;;;5.73;72.20;97932.06;6293066;28;20122;-69
2022/10/10 02:35:15;;;;;;;3.80;2.40;;;;;;;5.91;72.05;97929.81;6294413;28;20063;-69
2022/10/10 02:38:19;;;;;;;7.28;3.78;;;;;;;5.89;71.67;97942.94;6293184;28;20051;-69
2022/10/10 02:41:27;;;;;;;4.53;3.22;;;;;;;6.06;71.49;97939.88;6294938;28;20066;-68
2022/10/10 02:44:32;;;;;;;3.80;2.70;;;;;;;6.02;71.32;97938.25;6293772;28;20063;-68
2022/10/10 02:47:35;;;;;;;2.85;2.55;;;;;;;6.12;71.20;97937.06;6276303;28;20059;-68
2022/10/10 02:50:39;;;;;;;2.15;1.80;;;;;;;6.19;70.58;97946.44;6294557;28;20048;-69
2022/10/10 02:53:43;;;;;;;3.05;2.35;;;;;;;6.29;70.52;97942.66;6294831;28;20052;-69
2022/10/10 02:56:44;;;;;;;2.00;1.45;;;;;;;6.51;69.84;97941.97;6293999;28;20139;-69
2022/10/10 02:59:48;;;;;;;3.63;1.83;;;;;;;6.67;69.44;97935.34;6294960;28;20536;-69
2022/10/10 03:02:49;;;;;;;2.08;1.70;;;;;;;6.73;69.32;97945.59;6294257;28;20051;-69
2022/10/10 03:05:53;;;;;;;2.25;2.05;;;;;;;6.88;68.94;97952.13;6292461;28;20426;-69
2022/10/10 03:08:57;;;;;;;;;;;;;;;6.86;68.66;97950.47;6294071;28;20055;-69
2022/10/10 03:11:58;;;;;;;3.38;1.35;;;;;;;7.00;68.17;97948.25;6294183;28;19978;-68
2022/10/10 03:14:59;;;;;;;3.63;1.27;;;;;;;7.09;68.03;97940.06;6294031;28;20183;-68
2022/10/10 03:18:01;;;;;;;1.42;1.10;;;;;;;7.03;68.19;97950.75;6294114;28;20041;-68
2022/10/10 03:21:02;;;;;;;2.38;1.70;;;;;;;7.19;67.44;97944.09;6294158;28;20135;-69
2022/10/10 03:24:04;;;;;;;2.55;1.73;;;;;;;7.14;67.25;97943.41;6296006;28;20060;-69
2022/10/10 03:27:06;;;;;;;2.97;1.70;;;;;;;7.12;67.44;97955.66;6298239;28;20048;-68
2022/10/10 03:30:07;;;;;;;2.50;1.80;;;;;;;7.35;66.71;97954.03;6298800;28;20049;-69
2022/10/10 03:33:13;;;;;;;3.92;1.92;;;;;;;7.44;65.94;97951.09;6298990;28;20037;-69
2022/10/10 03:36:20;;;;;;;1.73;1.38;;;;;;;7.43;65.81;97965.09;6298552;28;20041;-69
2022/10/10 03:39:23;;;;;;;3.15;1.48;;;;;;;7.50;65.97;97950.00;6298830;28;20040;-69
2022/10/10 03:42:27;;;;;;;2.80;1.20;;;;;;;7.53;66.08;97958.63;6298568;28;20040;-68
2022/10/10 03:45:28;;;;;;;3.35;1.40;;;;;;;7.62;65.46;97966.16;6297779;28;20186;-70
2022/10/10 03:48:33;;;;;;;2.35;1.63;;;;;;;7.72;65.34;97955.34;6298540;28;20464;-69
2022/10/10 03:51:34;;;;;;;3.05;1.50;;;;;;;7.73;65.21;97964.91;6297609;28;20056;-69
2022/10/10 03:54:41;;;;;;;3.28;2.08;;;;;;;7.75;64.89;97965.72;6298378;28;20451;-69
2022/10/10 03:57:48;;;;;;;2.13;1.27;;;;;;;7.92;64.61;97957.25;6298381;28;20041;-69
2022/10/10 04:00:57;;;;;;;1.67;1.13;;;;;;;7.90;64.52;97959.06;6297917;28;20055;-69
2022/10/10 04:03:58;;;;;;;4.68;1.75;;;;;;;8.09;64.10;97965.34;6298145;28;20521;-69
2022/10/10 04:07:02;;;;;;;1.98;1.35;;;;;;;8.21;63.43;97958.75;6297876;28;20048;-70
2022/10/10 04:10:04;;;;;;;2.85;1.25;;;;;;;8.36;63.14;97957.34;6295934;28;20445;-69
2022/10/10 04:13:05;;;;;;;2.33;1.15;;;;;;;8.42;62.84;97955.38;6295408;28;20422;-70
2022/10/10 04:16:07;;;;;;;2.55;1.73;;;;;;;8.48;62.37;97963.00;6297404;28;20048;-70
2022/10/10 04:19:08;;;;;;;4.55;1.42;;;;;;;8.61;61.91;97946.78;6297038;28;20044;-70
2022/10/10 04:22:13;;;;;;;1.92;1.15;;;;;;;8.72;62.03;97960.34;6296796;28;20494;-71
2022/10/10 04:25:15;;;;;;;3.58;1.65;;;;;;;8.84;61.49;97964.22;6296754;28;20498;-68
2022/10/10 04:28:19;;;;;;;3.40;1.30;;;;;;;8.87;61.45;97959.69;6296534;28;20422;-69
2022/10/10 04:31:21;;;;;;;1.60;1.17;;;;;;;8.93;61.18;97951.56;6296875;28;20071;-69
2022/10/10 04:34:27;;;;;;;3.03;1.40;;;;;;;8.99;61.05;97961.81;6296959;28;20041;-68
2022/10/10 04:37:28;;;;;;;2.78;1.33;;;;;;;9.24;60.38;97971.31;6296201;28;20450;-68
2022/10/10 04:40:34;;;;;;;1.77;1.30;;;;;;;9.28;60.36;97977.28;6297275;28;20036;-70
2022/10/10 04:43:36;;;;;;;2.33;1.25;;;;;;;9.17;60.74;97972.47;6296441;28;20135;-69
2022/10/10 04:46:40;;;;;;;3.38;1.30;;;;;;;9.30;60.75;97976.31;6296996;28;20045;-70
2022/10/10 04:49:41;;;;;;;;;;;;;;;9.47;60.33;97974.75;6297637;28;20045;-68
2022/10/10 04:52:45;;;;;;;1.98;1.15;;;;;;;9.60;59.84;97983.81;6297007;28;19916;-68
2022/10/10 04:55:46;;;;;;;3.08;1.35;;;;;;;9.66;59.72;97987.00;6296573;28;20048;-68
2022/10/10 04:58:48;;;;;;;5.68;1.00;;;;;;;9.77;59.31;97981.28;6296405;28;20078;-69
2022/10/10 05:01:52;;;;;;;2.08;1.48;;;;;;;9.89;59.10;97966.75;6296044;28;20044;-69
2022/10/10 05:04:57;;;;;;;2.50;1.23;;;;;;;9.92;59.23;97973.66;6295934;28;20051;-69
2022/10/10 05:07:58;;;;;;;3.80;1.27;;;;;;;9.94;59.46;97974.44;6294477;28;20643;-68
2022/10/10 05:11:02;;;;;;;2.45;0.70;;;;;;;10.16;58.85;97974.31;6296615;28;20045;-70
2022/10/10 05:14:07;;;;;;;2.65;1.30;;;;;;;10.54;57.56;97985.72;6295368;28;20498;-69
2022/10/10 05:17:11;;;;;;;2.90;1.08;;;;;;;10.72;57.20;97989.25;6295996;28;20041;-70
2022/10/10 05:20:17;;;;;;;2.95;0.98;;;;;;;10.78;57.07;97973.16;6296302;28;20048;-69
2022/10/10 05:23:18;;;;;;;;;;;;;;;11.46;55.28;97982.09;6294434;28;20052;-69
2022/10/10 05:26:20;;;;;;;2.15;0.73;;;;;;;15.65;45.94;97989.19;6296243;28;19927;-69
2022/10/10 05:29:21;;;;;;;1.35;0.90;;;;;;;19.26;38.38;97988.84;6295199;28;20426;-69
2022/10/10 05:32:25;;;;;;;2.15;1.05;;;;;;;23.00;32.87;97991.88;6295678;28;20127;-69
2022/10/10 05:35:31;;;;;;;1.13;0.75;;;;;;;25.17;28.38;98005.59;6295386;28;20422;-69
2022/10/10 05:38:40;;;;;;;2.38;0.98;;;;;;;26.52;25.54;97999.75;6295986;28;20044;-68
2022/10/10 05:41:47;;;;;;;2.72;0.90;;;;;;;27.37;23.96;97984.72;6295850;28;20421;-69
2022/10/10 05:44:48;;;;;;;2.53;1.20;;;;;;;28.72;22.34;97990.31;6295692;28;20052;-68
2022/10/10 05:47:49;;;;;;;1.67;0.90;;;;;;;30.24;20.72;97996.63;6294982;28;20044;-69
2022/10/10 05:50:55;;;;;;;4.60;0.90;;;;;;;31.12;18.80;97996.94;6295424;28;20040;-69
2022/10/10 05:54:01;;;;;;;1.95;0.57;;;;;;;30.95;18.73;97987.47;6295727;28;20040;-69
2022/10/10 05:57:03;;;;;;;1.67;0.77;;;;;;;31.31;18.36;97992.63;6294632;28;20056;-69
2022/10/10 06:00:05;;;;;;;1.00;0.50;;;;;;;31.11;18.37;97984.34;6294699;28;20130;-69
2022/10/10 06:03:15;;;;;;;2.50;0.60;;;;;;;31.58;18.24;97982.66;6295585;28;20518;-70
2022/10/10 06:06:18;;;;;;;0.50;0.40;;;;;;;32.70;16.86;97972.81;6294722;28;20048;-69
2022/10/10 06:09:19;;;;;;;1.13;0.52;;;;;;;32.84;16.46;97977.19;6294538;28;20048;-69
2022/10/10 06:12:20;;;;;;;2.08;1.08;;;;;;;32.59;16.41;97979.75;6294822;28;20046;-69
2022/10/10 06:15:27;;;;;;;2.10;1.33;;;;;;;32.18;16.98;97975.38;6295069;28;20213;-69
2022/10/10 06:18:29;;;;;;;1.65;1.20;;;;;;;33.00;16.07;97970.41;6295233;28;20068;-68
2022/10/10 06:21:33;;;;;;;1.75;0.68;;;;;;;32.75;15.98;97972.16;6293566;28;20052;-68
2022/10/10 06:24:34;;;;;;;1.05;0.70;;;;;;;32.61;16.03;97965.91;6294696;28;20153;-69
2022/10/10 06:27:38;;;;;;;4.97;3.20;;;;;;;32.73;16.20;97968.84;6294904;28;20044;-69
2022/10/10 06:30:42;;;;;;;4.87;3.07;;;;;;;32.30;16.02;97970.16;6294745;28;20133;-69
2022/10/10 06:33:46;;;;;;;2.67;1.23;;;;;;;32.07;16.37;97964.28;6295241;28;20036;-70
2022/10/10 06:36:51;;;;;;;2.40;1.10;;;;;;;33.59;15.50;97973.91;6293642;28;20044;-69
2022/10/10 06:39:56;;;;;;;2.70;1.27;;;;;;;34.66;14.30;97946.56;6293999;28;20044;-69
2022/10/10 06:43:03;;;;;;;1.30;0.50;;;;;;;34.58;14.04;97966.00;6294687;28;20501;-70
2022/10/10 06:46:05;;;;;;;0.52;0.50;;;;;;;34.22;14.25;97950.34;6294543;28;20115;-68
2022/10/10 06:49:11;;;;;;;2.28;0.93;;;;;;;35.13;14.02;97963.25;6294571;28;20041;-69
2022/10/10 06:52:15;;;;;;;1.42;0.80;;;;;;;35.35;13.40;97962.75;6294479;28;20414;-69
2022/10/10 06:55:16;;;;;;;2.00;0.43;;;;;;;34.59;14.13;97940.31;6294321;28;20049;-69
2022/10/10 06:58:18;;;;;;;0.60;0.40;;;;;;;34.58;14.08;97944.13;6293379;28;20040;-69
2022/10/10 07:01:21;;;;;;;1.73;1.20;;;;;;;35.22;13.50;97942.72;6298763;28;20194;-68
2022/10/10 07:04:23;;;;;;;2.13;0.95;;;;;;;35.06;13.55;97948.84;6298539;28;20599;-69
2022/10/10 07:07:30;;;;;;;1.02;0.47;;;;;;;35.88;13.51;97956.50;6299418;28;20040;-69
2022/10/10 07:10:37;;;;;;;1.13;0.85;;;;;;;36.19;12.95;97942.50;6299182;28;20036;-69
2022/10/10 07:13:38;;;;;;;3.88;2.10;;;;;;;36.23;13.03;97936.56;6298576;28;20045;-69
2022/10/10 07:16:44;;;;;;;1.95;1.67;;;;;;;36.49;12.78;97941.56;6298043;28;20040;-68
2022/10/10 07:19:50;;;;;;;2.03;1.38;;;;;;;36.28;12.36;97925.72;6298871;28;20041;-68
2022/10/10 07:22:52;;;;;;;7.68;2.05;;;;;;;37.37;11.72;97931.34;6298115;28;20056;-68
2022/10/10 07:26:09;;;;;;;1.30;1.08;;;;;;;37.37;12.11;97927.72;6298700;28;20040;-68
2022/10/10 07:29:14;;;;;;;1.48;0.90;;;;;;;36.98;11.90;97933.00;6298361;28;20065;-68
2022/10/10 07:32:15;;;;;;;5.15;0.93;;;;;;;37.18;12.18;97938.09;6298096;28;20071;-68
2022/10/10 07:35:17;;;;;;;1.23;0.50;;;;;;;39.13;10.88;97933.78;6298758;28;20040;-68
2022/10/10 07:38:21;;;;;;;0.50;0.40;;;;;;;40.25;10.03;97928.53;6298203;28;20543;-68
2022/10/10 07:41:25;;;;;;;2.00;0.90;;;;;;;39.55;10.31;97913.84;6298768;28;20048;-68
2022/10/10 07:44:27;;;;;;;1.00;0.70;;;;;;;39.22;10.47;97930.31;6298590;28;20055;-68
2022/10/10 07:47:31;;;;;;;2.33;0.95;;;;;;;38.59;10.56;97915.22;6297802;28;20051;-69
2022/10/10 07:50:33;;;;;;;1.25;0.55;;;;;;;38.58;10.45;97917.13;6297730;28;20040;-69
2022/10/10 07:53:40;;;;;;;0.95;0.65;;;;;;;39.88;9.96;97912.81;6296875;28;20494;-68
2022/10/10 07:56:47;;;;;;;2.05;0.50;;;;;;;41.33;9.19;97927.94;6298482;28;20070;-69
2022/10/10 07:59:55;;;;;;;1.88;0.80;;;;;;;41.43;8.99;97916.09;6298225;28;20127;-68
2022/10/10 08:03:00;;;;;;;2.20;0.65;;;;;;;41.83;8.74;97931.91;6297488;28;20082;-69
2022/10/10 08:06:07;;;;;;;0.82;0.50;;;;;;;41.03;9.26;97923.16;6297747;28;20048;-69
2022/10/10 08:09:14;;;;;;;1.25;0.40;;;;;;;41.83;9.15;97920.03;6297295;28;20048;-69
2022/10/10 08:12:20;;;;;;;0.82;0.40;;;;;;;41.83;9.06;97920.84;6297818;28;20043;-69
2022/10/10 08:15:22;;;;;;;1.75;0.80;;;;;;;41.26;9.08;97902.53;6297604;28;20122;-69
2022/10/10 08:18:23;;;;;;;0.85;0.55;;;;;;;40.44;9.35;97899.41;6297426;28;20477;-69
2022/10/10 08:21:30;;;;;;;1.10;0.60;;;;;;;39.51;9.68;97891.53;6297497;28;20498;-69
2022/10/10 08:24:35;;;;;;;0.93;0.52;;;;;;;39.11;9.91;97881.75;6296744;28;21528;-69
2022/10/10 08:27:42;;;;;;;1.33;0.93;;;;;;;37.46;10.75;97866.72;6297510;28;20044;-69
2022/10/10 08:30:43;;;;;;;3.28;1.08;;;;;;;36.74;11.41;97864.50;6296756;28;20459;-69
2022/10/10 08:33:46;;;;;;;2.00;1.02;;;;;;;36.45;11.58;97888.28;6296096;28;20079;-68
2022/10/10 08:36:52;;;;;;;4.38;1.17;;;;;;;36.85;11.48;97882.00;6297100;28;20127;-69
2022/10/10 08:39:56;;;;;;;1.48;0.77;;;;;;;37.55;10.71;97869.06;6295661;28;20135;-69
2022/10/10 08:43:05;;;;;;;2.65;1.27;;;;;;;38.28;10.83;97879.03;6296872;28;20048;-69
2022/10/10 08:46:20;;;;;;;1.17;0.82;;;;;;;38.56;10.20;97868.97;6296551;28;20162;-69
2022/10/10 08:49:36;;;;;;;1.35;0.60;;;;;;;39.29;9.98;97869.53;6295800;28;20052;-69
2022/10/10 08:52:52;;;;;;;1.15;0.65;;;;;;;39.76;9.61;97877.16;6296221;28;20045;-69
2022/10/10 08:56:04;;;;;;;0.95;0.57;;;;;;;40.62;9.44;97889.84;6296410;28;20048;-68
2022/10/10 08:59:14;;;;;;;0.90;0.47;;;;;;;39.21;9.55;97861.72;6295891;28;20056;-68
2022/10/10 09:02:29;;;;;;;0.35;0.22;;;;;;;37.99;10.05;97872.00;6295823;28;20058;-70
2022/10/10 09:05:46;;;;;;;1.20;0.30;;;;;;;38.51;9.92;97860.66;6296373;28;20410;-69
2022/10/10 09:09:11;;;;;;;2.42;0.85;;;;;;;39.23;9.70;97863.13;6296369;28;20040;-68
2022/10/10 09:12:33;;;;;;;1.25;1.13;;;;;;;39.66;9.06;97866.88;6295621;28;20096;-68
2022/10/10 09:15:44;;;;;;;4.72;3.03;;;;;;;38.78;9.77;97861.53;6296293;28;20127;-69
2022/10/10 09:19:05;;;;;;;3.70;0.77;;;;;;;38.89;10.12;97856.19;6295499;28;20094;-68
2022/10/10 09:22:21;;;;;;;1.55;0.80;;;;;;;38.84;10.28;97859.66;6295605;28;20051;-68
2022/10/10 09:25:51;;;;;;;1.40;0.70;;;;;;;39.20;9.33;97863.66;6295985;28;20044;-70
2022/10/10 09:28:59;;;;;;;0.65;0.40;;;;;;;38.16;9.58;97843.41;6295401;28;20048;-69
2022/10/10 09:32:00;;;;;;;0.88;0.63;;;;;;;37.57;10.17;97839.44;6295262;28;20502;-68
2022/10/10 09:35:11;;;;;;;0.60;0.60;;;;;;;37.79;10.17;97843.09;6295316;28;20056;-68
2022/10/10 09:38:12;;;;;;;1.67;0.30;;;;;;;37.21;10.11;97836.06;6295151;28;20052;-69
2022/10/10 09:41:17;;;;;;;3.13;0.50;;;;;;;37.19;10.21;97843.72;6295552;28;20532;-68
2022/10/10 09:44:20;;;;;;;1.25;0.60;;;;;;;36.79;10.04;97839.94;6295590;28;20040;-69
2022/10/10 09:47:23;;;;;;;1.52;0.75;;;;;;;36.51;10.38;97843.44;6295352;28;20051;-69
2022/10/10 09:50:30;;;;;;;1.13;0.60;;;;;;;36.96;10.61;97822.69;6295757;28;20139;-69
2022/10/10 09:53:35;;;;;;;1.20;0.80;;;;;;;37.58;10.14;97835.63;6295419;28;20119;-70
2022/10/10 09:56:56;;;;;;;1.33;0.40;;;;;;;36.35;11.01;97834.09;6294286;28;20198;-70
2022/10/10 10:00:18;;;;;;;1.30;0.70;;;;;;;36.30;11.26;97825.75;6294868;28;20052;-70
2022/10/10 10:03:21;;;;;;;1.95;0.90;;;;;;;36.70;10.71;97822.19;6294798;28;20060;-69
2022/10/10 10:06:23;;;;;;;2.08;0.90;;;;;;;35.91;10.90;97821.84;6294547;28;20453;-69
2022/10/10 10:09:27;;;;;;;2.08;0.70;;;;;;;35.57;11.27;97813.38;6294770;28;20048;-68
2022/10/10 10:12:41;;;;;;;4.32;1.10;;;;;;;35.68;11.41;97819.94;6294713;28;20049;-68
2022/10/10 10:16:05;;;;;;;0.60;0.50;;;;;;;36.78;11.41;97827.31;6295310;28;20087;-69
2022/10/10 10:19:40;;;;;;;1.25;0.70;;;;;;;36.89;10.79;97811.88;6295190;28;20506;-69
2022/10/10 10:22:46;;;;;;;0.43;0.40;;;;;;;36.27;11.12;97814.44;6294893;28;20048;-68
2022/10/10 10:25:59;;;;;;;1.35;0.32;;;;;;;36.35;11.13;97812.16;6294439;28;20053;-67
2022/10/10 10:29:01;;;;;;;1.08;0.50;;;;;;;36.56;11.25;97813.44;6294648;28;20082;-68
2022/10/10 10:32:23;;;;;;;0.65;0.40;;;;;;;35.85;11.45;97811.84;6294495;28;20233;-68
2022/10/10 10:35:45;;;;;;;2.15;0.47;;;;;;;36.09;11.65;97807.19;6298103;28;20521;-69
2022/10/10 10:39:27;;;;;;;1.08;0.50;;;;;;;35.85;11.64;97812.66;6300093;28;20489;-68
2022/10/10 10:42:44;;;;;;;0.77;0.35;;;;;;;35.31;11.55;97801.78;6300071;28;20044;-69
2022/10/10 10:46:12;;;;;;;0.47;0.30;;;;;;;34.63;11.90;97800.25;6298833;28;20444;-70
2022/10/10 10:49:27;;;;;;;3.42;0.82;;;;;;;34.86;11.87;97799.50;6299288;28;20049;-68
2022/10/10 10:52:55;;;;;;;2.45;0.57;;;;;;;34.82;12.08;97809.25;6299593;28;20051;-68
2022/10/10 10:56:22;;;;;;;0.50;0.50;;;;;;;34.09;12.38;97799.22;6299660;28;20041;-68
2022/10/10 10:59:32;;;;;;;2.08;0.50;;;;;;;33.67;12.66;97789.97;6299722;28;20041;-69
2022/10/10 11:02:48;;;;;;;1.83;0.60;;;;;;;32.82;13.03;97784.91;6299522;28;20036;-69
2022/10/10 11:06:20;;;;;;;0.50;0.20;;;;;;;32.19;13.46;97789.19;6299183;28;20064;-68
2022/10/10 11:09:38;;;;;;;1.20;0.60;;;;;;;32.54;13.65;97786.13;6299167;28;20516;-68
2022/10/10 11:12:45;;;;;;;1.60;0.70;;;;;;;32.84;13.37;97791.00;6298987;28;20091;-68
2022/10/10 11:15:55;;;;;;;0.70;0.35;;;;;;;32.92;13.00;97787.97;6298921;28;20070;-69
2022/10/10 11:19:26;;;;;;;1.23;0.22;;;;;;;32.65;13.58;97782.72;6298630;28;20410;-69
2022/10/10 11:22:43;;;;;;;1.48;0.70;;;;;;;32.60;13.66;97785.25;6298551;28;20090;-69
2022/10/10 11:25:52;;;;;;;1.15;0.82;;;;;;;31.70;13.91;97782.34;6298820;28;20041;-69
2022/10/10 11:29:03;;;;;;;2.63;1.00;;;;;;;31.57;14.61;97773.41;6298687;28;20384;-68
2022/10/10 11:32:16;;;;;;;1.42;0.38;;;;;;;30.71;15.05;97776.84;6298676;28;20453;-68
2022/10/10 11:35:31;;;;;;;1.23;0.60;;;;;;;29.30;15.86;97766.28;6297912;28;20048;-69
2022/10/10 11:38:50;;;;;;;1.05;0.50;;;;;;;28.28;17.20;97759.19;6298837;28;20044;-69
2022/10/10 11:42:21;;;;;;;0.98;0.60;;;;;;;28.62;16.74;97753.16;6297762;28;20056;-68
2022/10/10 11:45:30;;;;;;;1.13;0.63;;;;;;;29.07;16.09;97752.94;6297370;28;20059;-69
2022/10/10 11:48:46;;;;;;;0.90;0.60;;;;;;;28.74;16.47;97755.34;6297702;28;20048;-69
2022/10/10 11:51:57;;;;;;;1.00;0.63;;;;;;;28.63;16.46;97754.81;6297471;28;20040;-69
2022/10/10 11:55:08;;;;;;;1.15;0.43;;;;;;;28.42;16.83;97754.78;6297309;28;20212;-69
2022/10/10 11:58:11;;;;;;;;;;;;;;;28.49;16.72;97746.75;6298398;28;20048;-69
2022/10/10 12:01:27;;;;;;;0.68;0.55;;;;;;;27.23;18.02;97746.69;6297776;28;19955;-68
2022/10/10 12:04:35;;;;;;;1.42;0.65;;;;;;;26.43;18.69;97745.22;6298016;28;20037;-69
2022/10/10 12:08:07;;;;;;;1.48;0.77;;;;;;;26.26;18.98;97743.66;6297783;28;20044;-69
2022/10/10 12:11:27;;;;;;;1.33;0.88;;;;;;;25.92;19.57;97746.69;6296896;28;20510;-69
2022/10/10 12:14:36;;;;;;;1.63;0.82;;;;;;;25.59;19.96;97743.22;6296749;28;20145;-69
2022/10/10 12:17:45;;;;;;;2.28;0.75;;;;;;;25.08;20.32;97738.09;6297547;28;20044;-68
2022/10/10 12:20:46;;;;;;;1.65;0.80;;;;;;;24.89;20.77;97731.22;6297223;28;20045;-69
2022/10/10 12:24:11;;;;;;;0.85;0.73;;;;;;;25.37;20.58;97732.19;6297073;28;20426;-69
2022/10/10 12:27:41;;;;;;;1.40;0.50;;;;;;;26.03;19.93;97737.38;6296848;28;20425;-68
2022/10/10 12:30:54;;;;;;;0.68;0.47;;;;;;;25.49;20.11;97738.88;6296932;28;20037;-70
2022/10/10 12:34:06;;;;;;;2.78;0.85;;;;;;;24.15;21.82;97731.09;6296172;28;20045;-70
2022/10/10 12:37:27;;;;;;;1.98;0.82;;;;;;;22.92;22.97;97729.56;6296569;28;20596;-70
2022/10/10 12:40:32;;;;;;;3.55;0.98;;;;;;;21.78;24.75;97726.59;6294946;28;20071;-70
2022/10/10 12:44:22;;;;;;;2.13;0.80;;;;;;;21.04;25.29;97727.41;6296239;28;20068;-70
2022/10/10 12:47:40;;;;;;;1.83;0.68;;;;;;;20.35;26.49;97728.38;6296318;28;20056;-69
2022/10/10 12:50:57;;;;;;;1.35;0.65;;;;;;;19.88;26.99;97729.03;6296706;28;20130;-70
2022/10/10 12:54:03;;;;;;;2.25;0.60;;;;;;;19.49;27.68;97725.34;6296493;28;20127;-70
2022/10/10 12:57:19;;;;;;;0.90;0.70;;;;;;;19.19;29.10;97732.41;6294830;28;20048;-70
2022/10/10 13:00:23;;;;;;;2.67;0.90;;;;;;;18.82;29.00;97740.88;6296326;28;20285;-70
2022/10/10 13:03:37;;;;;;;2.22;0.88;;;;;;;18.56;30.35;97742.16;6295717;28;20502;-68
2022/10/10 13:06:44;;;;;;;4.72;1.10;;;;;;;18.22;30.47;97739.63;6295438;28;20051;-70
2022/10/10 13:09:49;;;;;;;2.25;0.68;;;;;;;18.00;30.97;97734.38;6295688;28;20051;-70
2022/10/10 13:13:24;;;;;;;3.97;1.10;;;;;;;17.78;31.22;97744.09;6295460;28;20051;-70
2022/10/10 13:16:28;;;;;;;2.08;1.20;;;;;;;17.35;31.48;97731.50;6293519;28;20053;-70
2022/10/10 13:19:40;;;;;;;3.30;2.22;;;;;;;17.20;32.45;97738.03;6294692;28;20045;-70
2022/10/10 13:22:42;;;;;;;4.05;0.95;;;;;;;16.89;32.48;97739.56;6295875;28;20062;-69
2022/10/10 13:25:45;;;;;;;5.30;1.77;;;;;;;16.63;33.50;97744.16;6295621;28;20056;-69
2022/10/10 13:28:52;;;;;;;4.28;0.90;;;;;;;16.43;33.57;97751.81;6295937;28;20047;-70
2022/10/10 13:32:19;;;;;;;4.25;1.42;;;;;;;16.23;34.02;97741.84;6295156;28;20036;-71
2022/10/10 13:35:25;;;;;;;5.55;1.40;;;;;;;15.94;34.72;97758.09;6284845;28;20048;-70
2022/10/10 13:38:26;;;;;;;10.20;4.25;;;;;;;15.71;36.15;97752.63;6295620;28;20039;-70
2022/10/10 13:41:28;;;;;;;20.33;8.23;;;;;;;15.62;37.08;97766.50;6295140;28;20422;-70
2022/10/10 13:44:45;;;;;;;9.88;3.70;;;;;;;15.46;36.59;97773.88;6295395;28;20123;-69
2022/10/10 13:48:09;;;;;;;13.88;8.27;;;;;;;15.33;37.71;97773.03;6294644;28;20067;-72
2022/10/10 13:51:13;;;;;;;11.77;5.47;;;;;;;15.05;37.07;97774.94;6295489;28;20036;-69
2022/10/10 13:54:41;;;;;;;13.30;4.88;;;;;;;14.91;37.02;97767.91;6295124;28;20044;-71
2022/10/10 13:57:46;;;;;;;9.65;3.67;;;;;;;14.75;37.29;97767.28;6295343;28;20037;-70
2022/10/10 14:00:58;;;;;;;8.88;3.90;;;;;;;14.65;37.59;97767.03;6295105;28;20162;-70
2022/10/10 14:04:11;;;;;;;8.82;3.70;;;;;;;14.65;37.37;97776.78;6295104;28;20044;-69
2022/10/10 14:07:23;;;;;;;11.23;4.50;;;;;;;14.49;38.59;97772.50;6294117;28;20062;-69
2022/10/10 14:10:34;;;;;;;14.73;7.60;;;;;;;14.33;39.05;97777.94;6295043;28;20533;-69
2022/10/10 14:13:37;;;;;;;17.80;6.55;;;;;;;14.13;39.64;97771.31;6294711;28;20079;-70
2022/10/10 14:16:42;;;;;;;23.02;11.25;;;;;;;14.01;39.82;97785.34;6295019;28;20048;-69
2022/10/10 14:19:45;;;;;;;27.35;13.13;;;;;;;13.87;40.00;97785.34;6294781;28;20085;-69
2022/10/10 14:22:47;;;;;;;28.88;14.90;;;;;;;13.75;40.23;97792.25;6276336;28;20049;-70
2022/10/10 14:25:52;;;;;;;26.00;14.45;;;;;;;13.65;40.03;97796.44;6294611;28;20044;-69
2022/10/10 14:28:55;;;;;;;30.13;15.23;;;;;;;13.54;40.75;97798.91;6293867;28;20068;-70
2022/10/10 14:31:58;;;;;;;13.80;6.85;;;;;;;13.44;39.89;97788.88;6294418;28;20071;-69
2022/10/10 14:35:03;;;;;;;25.92;14.88;;;;;;;13.37;40.26;97792.88;6294149;28;20056;-71
2022/10/10 14:38:05;;;;;;;10.90;5.38;;;;;;;13.33;39.53;97793.97;6293844;28;20049;-69
2022/10/10 14:41:06;;;;;;;33.92;16.90;;;;;;;13.25;39.70;97805.03;6294434;28;20152;-72
2022/10/10 14:44:08;;;;;;;43.33;23.30;;;;;;;13.08;40.59;97797.25;6294448;28;20123;-71
2022/10/10 14:47:29;;;;;;;15.48;8.93;;;;;;;13.04;40.06;97807.13;6294319;28;20061;-70
2022/10/10 14:50:36;;;;;;;29.42;13.60;;;;;;;12.96;40.37;97804.09;6293965;28;20502;-70